createdAt,value
2018-04-11T00:00:13.227Z,22.70
2018-04-11T00:02:40.652Z,22.40
2018-04-11T00:05:08.121Z,23.03
2018-04-11T00:07:35.553Z,23.23
2018-04-11T00:10:03.960Z,22.60
2018-04-11T00:12:33.094Z,22.80
2018-04-11T00:15:00.513Z,22.07
2018-04-11T00:17:27.943Z,24.30
2018-04-11T00:19:55.369Z,22.63
2018-04-11T00:22:23.553Z,23.67
2018-04-11T00:24:51.749Z,23.63
2018-04-11T00:27:19.182Z,23.53
2018-04-11T00:29:46.606Z,24.30
2018-04-11T00:32:14.020Z,23.30
2018-04-11T00:34:41.444Z,22.63
2018-04-11T00:37:08.862Z,23.17
2018-04-11T00:39:36.284Z,23.33
2018-04-11T00:42:04.527Z,24.43
2018-04-11T00:44:33.668Z,23.60
2018-04-11T00:47:01.090Z,25.00
2018-04-11T00:49:28.517Z,23.83
2018-04-11T00:51:55.953Z,22.50
2018-04-11T00:54:23.376Z,25.33
2018-04-11T00:56:50.797Z,24.30
2018-04-11T00:59:18.271Z,23.77
2018-04-11T01:01:45.688Z,23.27
2018-04-11T01:04:13.131Z,22.20
2018-04-11T01:06:40.556Z,23.47
2018-04-11T01:09:08.747Z,23.07
2018-04-11T01:11:36.934Z,22.80
2018-04-11T01:14:05.120Z,23.73
2018-04-11T01:16:32.547Z,23.53
2018-04-11T01:18:59.986Z,25.50
2018-04-11T01:21:27.405Z,21.83
2018-04-11T01:23:55.596Z,25.13
2018-04-11T01:26:23.817Z,23.70
2018-04-11T01:28:51.287Z,25.23
2018-04-11T01:31:18.717Z,23.30
2018-04-11T01:33:46.900Z,25.43
2018-04-11T01:36:14.322Z,23.80
2018-04-11T01:38:41.729Z,24.40
2018-04-11T01:41:09.153Z,23.63
2018-04-11T01:43:36.576Z,23.57
2018-04-11T01:46:05.601Z,23.33
2018-04-11T01:48:34.704Z,24.67
2018-04-11T01:51:02.884Z,23.80
2018-04-11T01:53:31.076Z,23.83
2018-04-11T01:55:59.267Z,25.00
2018-04-11T01:58:26.740Z,23.53
2018-04-11T02:00:54.153Z,26.20
2018-04-11T02:03:21.612Z,25.30
2018-04-11T02:05:49.029Z,23.60
2018-04-11T02:08:17.224Z,24.15
2018-04-11T02:10:44.697Z,24.50
2018-04-11T02:13:12.864Z,24.30
2018-04-11T02:15:41.044Z,22.57
2018-04-11T02:18:08.461Z,24.57
2018-04-11T02:20:35.921Z,24.90
2018-04-11T02:23:03.502Z,23.40
2018-04-11T02:25:30.953Z,24.23
2018-04-11T02:27:58.358Z,22.80
2018-04-11T02:30:25.790Z,23.43
2018-04-11T02:32:53.275Z,22.40
2018-04-11T02:35:20.676Z,23.53
2018-04-11T02:37:48.087Z,22.30
2018-04-11T02:40:15.549Z,22.47
2018-04-11T02:42:43.717Z,22.33
2018-04-11T02:45:11.165Z,21.43
2018-04-11T02:47:38.614Z,23.30
2018-04-11T02:50:06.034Z,22.93
2018-04-11T02:52:34.214Z,23.60
2018-04-11T02:55:01.632Z,23.20
2018-04-11T02:57:29.066Z,21.33
2018-04-11T02:59:57.238Z,21.07
2018-04-11T03:02:24.657Z,22.63
2018-04-11T03:04:52.108Z,20.50
2018-04-11T03:07:19.533Z,21.57
2018-04-11T03:09:46.965Z,21.50
2018-04-11T03:12:14.389Z,22.90
2018-04-11T03:14:42.572Z,19.60
2018-04-11T03:17:10.770Z,20.17
2018-04-11T03:19:38.945Z,21.80
2018-04-11T03:22:07.245Z,20.48
2018-04-11T03:24:36.336Z,20.23
2018-04-11T03:27:03.756Z,20.40
2018-04-11T03:29:31.179Z,19.17
2018-04-11T03:31:58.585Z,20.37
2018-04-11T03:34:26.020Z,19.60
2018-04-11T03:36:54.224Z,20.10
2018-04-11T03:39:21.632Z,21.00
2018-04-11T03:41:49.087Z,21.50
2018-04-11T03:44:16.492Z,21.60
2018-04-11T03:46:43.915Z,21.07
2018-04-11T03:49:11.324Z,20.83
2018-04-11T03:51:38.762Z,20.43
2018-04-11T03:54:07.106Z,20.70
2018-04-11T03:56:35.325Z,21.50
2018-04-11T03:59:02.757Z,20.53
2018-04-11T04:01:30.324Z,21.57
2018-04-11T04:03:57.800Z,21.70
2018-04-11T04:06:26.002Z,20.93
2018-04-11T04:08:54.208Z,19.90
2018-04-11T04:11:21.633Z,21.17
2018-04-11T04:14:01.721Z,21.80
2018-04-11T04:16:41.759Z,20.90
2018-04-11T04:19:21.102Z,20.47
2018-04-11T04:21:49.305Z,21.00
2018-04-11T04:24:17.507Z,22.00
2018-04-11T04:26:44.959Z,20.60
2018-04-11T04:29:13.320Z,21.20
2018-04-11T04:31:40.737Z,20.70
2018-04-11T04:34:08.163Z,19.60
2018-04-11T04:36:35.620Z,19.50
2018-04-11T04:39:03.064Z,19.40
2018-04-11T04:41:30.743Z,19.40
2018-04-11T04:43:58.175Z,19.93
2018-04-11T04:46:26.377Z,21.30
2018-04-11T04:48:53.808Z,21.23
2018-04-11T04:51:21.239Z,20.03
2018-04-11T04:53:48.669Z,20.80
2018-04-11T04:56:16.104Z,20.20
2018-04-11T04:58:43.513Z,20.50
2018-04-11T05:01:10.940Z,20.73
2018-04-11T05:03:39.156Z,19.60
2018-04-11T05:06:08.281Z,21.67
2018-04-11T05:08:35.697Z,19.80
2018-04-11T05:11:03.125Z,19.00
2018-04-11T05:13:30.561Z,20.90
2018-04-11T05:15:58.748Z,21.33
2018-04-11T05:18:26.753Z,21.27
2018-04-11T05:20:54.160Z,21.27
2018-04-11T05:23:21.588Z,22.40
2018-04-11T05:25:49.017Z,21.13
2018-04-11T05:28:16.520Z,20.77
2018-04-11T05:30:43.947Z,22.25
2018-04-11T05:33:11.378Z,20.80
2018-04-11T05:35:39.672Z,21.90
2018-04-11T05:38:07.093Z,21.97
2018-04-11T05:40:35.304Z,22.00
2018-04-11T05:43:02.728Z,21.73
2018-04-11T05:45:30.948Z,22.20
2018-04-11T05:47:58.419Z,20.80
2018-04-11T05:50:26.612Z,24.70
2018-04-11T05:52:54.777Z,24.03
2018-04-11T05:55:22.974Z,21.77
2018-04-11T05:57:51.153Z,22.03
2018-04-11T06:00:19.561Z,22.83
2018-04-11T06:02:47.000Z,22.80
2018-04-11T06:05:15.210Z,21.87
2018-04-11T06:07:42.653Z,21.70
2018-04-11T06:10:10.071Z,22.03
2018-04-11T06:12:37.512Z,22.40
2018-04-11T06:15:05.720Z,23.27
2018-04-11T06:17:33.147Z,20.97
2018-04-11T06:20:00.621Z,22.70
2018-04-11T06:22:28.054Z,23.20
2018-04-11T06:24:55.466Z,24.47
2018-04-11T06:27:22.905Z,23.30
2018-04-11T06:29:50.356Z,23.53
2018-04-11T06:32:17.772Z,24.50
2018-04-11T06:34:45.222Z,23.87
2018-04-11T06:37:12.753Z,23.10
2018-04-11T06:39:40.173Z,23.13
2018-04-11T06:42:08.437Z,24.27
2018-04-11T06:44:35.819Z,23.77
2018-04-11T06:47:04.033Z,24.70
2018-04-11T06:49:31.473Z,23.77
2018-04-11T06:51:58.889Z,24.20
2018-04-11T06:54:26.392Z,23.53
2018-04-11T06:56:53.833Z,23.90
2018-04-11T06:59:21.246Z,23.57
2018-04-11T07:01:49.425Z,23.27
2018-04-11T07:04:16.948Z,23.73
2018-04-11T07:06:44.406Z,23.10
2018-04-11T07:09:12.579Z,24.53
2018-04-11T07:11:40.607Z,23.80
2018-04-11T07:14:08.086Z,23.97
2018-04-11T07:16:35.503Z,23.50
2018-04-11T07:19:03.697Z,24.70
2018-04-11T07:21:31.871Z,23.73
2018-04-11T07:23:59.320Z,26.07
2018-04-11T07:26:26.788Z,26.03
2018-04-11T07:28:54.344Z,24.63
2018-04-11T07:31:21.775Z,25.43
2018-04-11T07:33:49.306Z,24.80
2018-04-11T07:36:16.709Z,25.10
2018-04-11T07:38:44.151Z,24.50
2018-04-11T07:41:11.586Z,24.90
2018-04-11T07:43:39.035Z,23.87
2018-04-11T07:46:06.907Z,23.17
2018-04-11T07:48:35.060Z,26.30
2018-04-11T07:51:02.560Z,24.80
2018-04-11T07:53:30.097Z,25.93
2018-04-11T07:55:58.272Z,25.60
2018-04-11T07:58:26.547Z,26.13
2018-04-11T08:00:53.964Z,27.23
2018-04-11T08:03:21.426Z,26.23
2018-04-11T08:05:50.179Z,22.50
2018-04-11T08:08:17.617Z,26.43
2018-04-11T08:10:45.067Z,26.80
2018-04-11T08:13:12.513Z,26.87
2018-04-11T08:15:39.940Z,28.50
2018-04-11T08:18:07.355Z,22.47
2018-04-11T08:20:34.816Z,28.13
2018-04-11T08:23:03.013Z,27.80
2018-04-11T08:25:30.501Z,28.10
2018-04-11T08:27:57.944Z,28.30
2018-04-11T08:30:25.434Z,29.90
2018-04-11T08:32:52.866Z,27.60
2018-04-11T08:35:21.071Z,30.37
2018-04-11T08:37:49.265Z,31.13
2018-04-11T08:40:16.674Z,29.50
2018-04-11T08:42:44.116Z,29.93
2018-04-11T08:45:13.259Z,29.80
2018-04-11T08:47:40.717Z,29.80
2018-04-11T08:50:08.158Z,28.90
2018-04-11T08:52:35.653Z,28.00
2018-04-11T08:55:03.013Z,29.03
2018-04-11T08:57:30.484Z,28.65
2018-04-11T08:59:57.912Z,29.43
2018-04-11T09:02:25.883Z,28.83
2018-04-11T09:04:54.045Z,28.20
2018-04-11T09:07:22.257Z,29.57
2018-04-11T09:09:50.440Z,28.90
2018-04-11T09:12:18.670Z,29.27
2018-04-11T09:14:46.130Z,28.67
2018-04-11T09:17:14.299Z,28.93
2018-04-11T09:19:41.745Z,29.63
2018-04-11T09:22:09.945Z,31.47
2018-04-11T09:24:38.136Z,30.30
2018-04-11T09:27:06.325Z,30.60
2018-04-11T09:29:34.541Z,30.10
2018-04-11T09:32:02.000Z,30.70
2018-04-11T09:34:29.432Z,31.43
2018-04-11T09:36:56.959Z,31.95
2018-04-11T09:39:24.364Z,31.60
2018-04-11T09:41:51.871Z,30.47
2018-04-11T09:44:19.278Z,32.93
2018-04-11T09:46:46.740Z,32.47
2018-04-11T09:49:14.191Z,30.30
2018-04-11T09:51:41.625Z,32.30
2018-04-11T09:54:09.824Z,33.70
2018-04-11T09:56:37.262Z,32.03
2018-04-11T09:59:04.760Z,32.90
2018-04-11T10:01:37.883Z,34.27
2018-04-11T10:04:06.093Z,33.47
2018-04-11T10:06:33.522Z,33.17
2018-04-11T10:09:00.981Z,34.43
2018-04-11T10:11:29.196Z,33.37
2018-04-11T10:13:56.637Z,32.80
2018-04-11T10:16:24.075Z,38.20
2018-04-11T10:18:51.484Z,36.60
2018-04-11T10:21:18.914Z,35.67
2018-04-11T10:23:46.393Z,37.83
2018-04-11T10:26:15.317Z,34.20
2018-04-11T10:28:43.517Z,34.57
2018-04-11T10:31:10.952Z,35.90
2018-04-11T10:33:38.402Z,34.47
2018-04-11T10:36:05.802Z,40.17
2018-04-11T10:38:33.304Z,37.33
2018-04-11T10:41:00.800Z,38.23
2018-04-11T10:43:28.243Z,36.60
2018-04-11T10:45:55.745Z,39.28
2018-04-11T10:48:23.139Z,40.80
2018-04-11T10:50:50.596Z,40.70
2018-04-11T10:53:18.317Z,42.13
2018-04-11T10:55:46.481Z,42.40
2018-04-11T10:58:15.597Z,42.80
2018-04-11T11:00:43.032Z,31.77
2018-04-11T11:03:10.491Z,41.10
2018-04-11T11:05:37.892Z,39.13
2018-04-11T11:08:06.108Z,38.10
2018-04-11T11:10:33.533Z,36.73
2018-04-11T11:13:01.153Z,47.83
2018-04-11T11:15:28.576Z,38.97
2018-04-11T11:17:56.022Z,36.43
2018-04-11T11:20:23.432Z,42.50
2018-04-11T11:22:51.657Z,44.20
2018-04-11T11:25:19.052Z,40.30
2018-04-11T11:27:46.529Z,37.40
2018-04-11T11:30:14.713Z,35.40
2018-04-11T11:32:42.118Z,35.47
2018-04-11T11:35:09.597Z,35.90
2018-04-11T11:37:37.768Z,36.60
2018-04-11T11:40:05.960Z,36.37
2018-04-11T11:42:34.132Z,34.37
2018-04-11T11:45:01.577Z,34.17
2018-04-11T11:47:28.993Z,32.70
2018-04-11T11:49:56.414Z,34.13
2018-04-11T11:52:23.902Z,33.50
2018-04-11T11:54:51.303Z,36.83
2018-04-11T11:57:18.747Z,34.10
2018-04-11T11:59:47.446Z,34.00
2018-04-11T12:02:16.593Z,32.40
2018-04-11T12:07:11.568Z,35.17
2018-04-11T12:09:39.008Z,38.37
2018-04-11T12:12:06.429Z,38.47
2018-04-11T12:14:34.668Z,38.03
2018-04-11T12:17:02.104Z,37.67
2018-04-11T12:19:29.534Z,38.20
2018-04-11T12:21:56.948Z,38.33
2018-04-11T12:24:24.535Z,36.27
2018-04-11T12:26:51.947Z,38.50
2018-04-11T12:29:19.468Z,37.97
2018-04-11T12:31:48.156Z,35.40
2018-04-11T12:34:15.565Z,35.23
2018-04-11T12:36:42.981Z,34.20
2018-04-11T12:39:10.445Z,35.10
2018-04-11T12:41:37.937Z,35.33
2018-04-11T12:44:05.410Z,35.47
2018-04-11T12:46:32.836Z,31.93
2018-04-11T12:49:01.101Z,32.50
2018-04-11T12:51:28.544Z,34.77
2018-04-11T12:53:55.986Z,33.88
2018-04-11T12:56:23.460Z,34.13
2018-04-11T12:58:50.895Z,33.50
2018-04-11T13:01:18.411Z,30.80
2018-04-11T13:03:45.842Z,32.50
2018-04-11T13:06:14.032Z,33.70
2018-04-11T13:08:42.214Z,31.50
2018-04-11T13:11:10.406Z,34.03
2018-04-11T13:13:38.642Z,33.40
2018-04-11T13:16:06.044Z,32.60
2018-04-11T13:18:33.532Z,35.17
2018-04-11T13:21:01.010Z,37.30
2018-04-11T13:23:28.439Z,36.87
2018-04-11T13:25:55.865Z,37.90
2018-04-11T13:28:23.302Z,36.87
2018-04-11T13:30:51.500Z,37.43
2018-04-11T13:33:18.936Z,37.73
2018-04-11T13:35:46.452Z,36.47
2018-04-11T13:38:13.874Z,26.73
2018-04-11T13:40:42.800Z,38.63
2018-04-11T13:43:10.992Z,35.67
2018-04-11T13:45:39.193Z,35.97
2018-04-11T13:48:06.621Z,36.50
2018-04-11T13:50:34.057Z,35.80
2018-04-11T13:53:01.482Z,36.30
2018-04-11T13:55:29.689Z,37.80
2018-04-11T13:57:57.160Z,35.63
2018-04-11T14:00:25.362Z,35.63
2018-04-11T14:02:52.785Z,35.93
2018-04-11T14:05:21.101Z,35.53
2018-04-11T14:07:49.245Z,37.53
2018-04-11T14:10:16.683Z,38.17
2018-04-11T14:12:44.133Z,38.03
2018-04-11T14:15:11.548Z,37.30
2018-04-11T14:17:39.066Z,37.90
2018-04-11T14:20:07.267Z,37.30
2018-04-11T14:22:34.693Z,38.00
2018-04-11T14:25:02.912Z,36.95
2018-04-11T14:27:30.368Z,35.80
2018-04-11T14:29:57.789Z,38.23
2018-04-11T14:32:25.229Z,37.80
2018-04-11T14:34:52.681Z,37.37
2018-04-11T14:37:20.108Z,38.20
2018-04-11T14:39:48.313Z,35.93
2018-04-11T14:42:16.500Z,35.97
2018-04-11T14:44:43.939Z,36.97
2018-04-11T14:47:11.352Z,35.93
2018-04-11T14:49:38.804Z,36.70
2018-04-11T14:52:06.216Z,35.37
2018-04-11T14:54:33.683Z,36.27
2018-04-11T14:57:01.131Z,35.03
2018-04-11T14:59:28.557Z,35.27
2018-04-11T15:01:56.065Z,35.83
2018-04-11T15:04:23.550Z,36.57
2018-04-11T15:06:51.082Z,36.90
2018-04-11T15:09:18.457Z,37.03
2018-04-11T15:11:46.649Z,36.40
2018-04-11T15:14:14.079Z,36.20
2018-04-11T15:16:41.497Z,37.17
2018-04-11T15:19:08.932Z,34.15
2018-04-11T15:21:37.152Z,34.03
2018-04-11T15:24:04.622Z,33.93
2018-04-11T15:26:32.050Z,31.10
2018-04-11T15:29:00.263Z,32.33
2018-04-11T15:31:28.439Z,31.87
2018-04-11T15:33:55.883Z,30.03
2018-04-11T15:36:23.311Z,31.90
2018-04-11T15:38:51.787Z,29.20
2018-04-11T15:41:20.909Z,30.43
2018-04-11T15:43:48.370Z,30.37
2018-04-11T15:46:28.500Z,30.53
2018-04-11T15:48:55.913Z,30.90
2018-04-11T15:51:23.522Z,31.63
2018-04-11T15:53:51.963Z,33.17
2018-04-11T15:56:19.407Z,33.63
2018-04-11T15:58:46.812Z,33.70
2018-04-11T16:01:14.264Z,33.30
2018-04-11T16:03:42.488Z,35.97
2018-04-11T16:06:09.936Z,34.67
2018-04-11T16:08:37.356Z,35.77
2018-04-11T16:11:04.907Z,36.93
2018-04-11T16:13:32.384Z,40.13
2018-04-11T16:15:59.823Z,38.17
2018-04-11T16:18:27.291Z,40.70
2018-04-11T16:20:54.749Z,39.40
2018-04-11T16:23:22.183Z,39.93
2018-04-11T16:25:50.384Z,39.27
2018-04-11T16:28:17.824Z,39.70
2018-04-11T16:30:45.280Z,40.93
2018-04-11T16:33:12.768Z,41.27
2018-04-11T16:35:40.209Z,38.60
2018-04-11T16:38:08.605Z,39.80
2018-04-11T16:40:36.053Z,37.07
2018-04-11T16:43:03.495Z,37.47
2018-04-11T16:45:30.930Z,39.00
2018-04-11T16:47:58.344Z,36.40
2018-04-11T16:50:25.763Z,40.30
2018-04-11T16:52:53.200Z,40.50
2018-04-11T16:55:20.615Z,40.33
2018-04-11T16:57:48.049Z,39.40
2018-04-11T17:00:15.485Z,37.43
2018-04-11T17:02:42.922Z,37.70
2018-04-11T17:05:11.324Z,39.20
2018-04-11T17:07:39.514Z,40.00
2018-04-11T17:10:07.709Z,38.80
2018-04-11T17:12:35.123Z,37.40
2018-04-11T17:15:02.585Z,37.17
2018-04-11T17:17:29.992Z,34.33
2018-04-11T17:19:58.213Z,36.13
2018-04-11T17:22:37.428Z,34.97
2018-04-11T17:25:17.452Z,32.67
2018-04-11T17:27:56.828Z,32.10
2018-04-11T17:30:37.000Z,32.73
2018-04-11T17:33:05.212Z,33.80
2018-04-11T17:35:32.682Z,35.53
2018-04-11T17:38:00.869Z,33.90
2018-04-11T17:40:28.293Z,32.83
2018-04-11T17:42:55.722Z,35.47
2018-04-11T17:45:23.148Z,36.63
2018-04-11T17:47:51.418Z,36.30
2018-04-11T17:50:18.827Z,37.10
2018-04-11T17:52:46.285Z,38.00
2018-04-11T17:55:13.708Z,37.40
2018-04-11T17:57:41.145Z,37.63
2018-04-11T18:00:08.572Z,36.73
2018-04-11T18:02:36.778Z,38.33
2018-04-11T18:05:04.228Z,36.07
2018-04-11T18:07:31.641Z,37.40
2018-04-11T18:09:59.091Z,38.30
2018-04-11T18:12:27.253Z,37.40
2018-04-11T18:14:55.566Z,34.10
2018-04-11T18:17:24.051Z,35.22
2018-04-11T18:19:53.164Z,35.63
2018-04-11T18:22:20.577Z,33.27
2018-04-11T18:24:48.053Z,31.80
2018-04-11T18:27:15.470Z,33.57
2018-04-11T18:29:42.901Z,32.03
2018-04-11T18:32:10.352Z,34.00
2018-04-11T18:34:37.758Z,32.93
2018-04-11T18:37:05.935Z,31.23
2018-04-11T18:39:34.166Z,30.70
2018-04-11T18:42:02.404Z,32.70
2018-04-11T18:44:29.821Z,31.95
2018-04-11T18:46:57.264Z,34.73
2018-04-11T18:49:25.501Z,32.50
2018-04-11T18:51:54.240Z,31.05
2018-04-11T18:54:21.737Z,30.00
2018-04-11T18:56:49.180Z,33.80
2018-04-11T18:59:16.609Z,34.87
2018-04-11T19:01:44.078Z,30.00
2018-04-11T19:04:11.500Z,35.07
2018-04-11T19:06:38.925Z,34.67
2018-04-11T19:09:06.353Z,32.97
2018-04-11T19:11:33.770Z,31.73
2018-04-11T19:14:01.194Z,32.00
2018-04-11T19:16:28.618Z,33.97
2018-04-11T19:18:56.800Z,34.97
2018-04-11T19:21:24.216Z,33.03
2018-04-11T19:23:51.664Z,32.27
2018-04-11T19:26:19.078Z,31.80
2018-04-11T19:28:46.515Z,26.37
2018-04-11T19:31:13.981Z,30.87
2018-04-11T19:33:41.437Z,27.97
2018-04-11T19:36:09.609Z,32.43
2018-04-11T19:38:37.877Z,32.25
2018-04-11T19:41:05.336Z,31.33
2018-04-11T19:43:32.781Z,32.07
2018-04-11T19:46:00.209Z,32.17
2018-04-11T19:48:27.629Z,30.33
2018-04-11T19:50:55.121Z,34.93
2018-04-11T19:53:22.527Z,28.20
2018-04-11T19:55:50.037Z,33.23
2018-04-11T19:58:18.186Z,33.60
2018-04-11T20:00:45.601Z,33.13
2018-04-11T20:03:13.049Z,33.73
2018-04-11T20:05:40.533Z,32.60
2018-04-11T20:08:07.912Z,32.60
2018-04-11T20:10:35.424Z,33.88
2018-04-11T20:13:03.609Z,31.63
2018-04-11T20:15:31.021Z,34.40
2018-04-11T20:17:58.467Z,30.87
2018-04-11T20:20:25.877Z,31.20
2018-04-11T20:22:54.221Z,32.23
2018-04-11T20:25:21.673Z,31.87
2018-04-11T20:27:49.153Z,32.90
2018-04-11T20:30:16.561Z,30.93
2018-04-11T20:32:44.040Z,31.53
2018-04-11T20:35:11.569Z,29.60
2018-04-11T20:37:39.001Z,32.60
2018-04-11T20:40:06.424Z,23.90
2018-04-11T20:42:33.877Z,28.30
2018-04-11T20:45:02.330Z,33.80
2018-04-11T20:47:29.805Z,27.50
2018-04-11T20:49:57.676Z,35.50
2018-04-11T20:52:25.864Z,29.60
2018-04-11T20:54:54.276Z,33.57
2018-04-11T20:57:21.704Z,32.87
2018-04-11T20:59:49.889Z,27.90
2018-04-11T21:02:18.141Z,35.47
2018-04-11T21:04:45.546Z,35.00
2018-04-11T21:07:12.985Z,35.10
2018-04-11T21:09:40.395Z,38.60
2018-04-11T21:12:08.616Z,36.20
2018-04-11T21:14:36.365Z,36.47
2018-04-11T21:17:04.586Z,36.67
2018-04-11T21:19:32.054Z,38.77
2018-04-11T21:22:00.210Z,38.67
2018-04-11T21:24:27.630Z,39.70
2018-04-11T21:26:55.091Z,39.00
2018-04-11T21:29:22.683Z,37.37
2018-04-11T21:31:50.141Z,38.77
2018-04-11T21:34:17.561Z,40.00
2018-04-11T21:36:45.000Z,40.80
2018-04-11T21:39:12.428Z,41.42
2018-04-11T21:41:39.874Z,38.50
2018-04-11T21:44:07.292Z,43.10
2018-04-11T21:46:34.716Z,42.57
2018-04-11T21:49:02.139Z,42.40
2018-04-11T21:51:29.566Z,43.00
2018-04-11T21:53:56.976Z,41.97
2018-04-11T21:56:24.817Z,41.05
2018-04-11T21:58:52.240Z,41.90
2018-04-11T22:01:20.451Z,38.37
2018-04-11T22:03:47.873Z,41.87
2018-04-11T22:06:16.050Z,40.20
2018-04-11T22:08:43.480Z,43.83
2018-04-11T22:11:10.944Z,42.60
2018-04-11T22:13:38.344Z,40.40
2018-04-11T22:16:05.769Z,42.47
2018-04-11T22:18:33.200Z,42.93
2018-04-11T22:21:00.743Z,42.90
2018-04-11T22:23:28.175Z,43.90
2018-04-11T22:25:55.618Z,44.67
2018-04-11T22:28:23.041Z,41.80
2018-04-11T22:30:50.460Z,39.87
2018-04-11T22:33:18.645Z,42.97
2018-04-11T22:35:46.960Z,43.20
2018-04-11T22:38:15.122Z,44.43
2018-04-11T22:40:43.310Z,42.53
2018-04-11T22:43:11.499Z,40.43
2018-04-11T22:45:39.709Z,41.20
2018-04-11T22:48:07.123Z,42.10
2018-04-11T22:50:34.558Z,41.60
2018-04-11T22:53:01.989Z,39.40
2018-04-11T22:55:29.420Z,40.97
2018-04-11T22:57:56.853Z,41.53
2018-04-11T23:00:25.964Z,41.13
2018-04-11T23:02:53.376Z,41.50
2018-04-11T23:05:20.808Z,40.07
2018-04-11T23:07:48.240Z,41.50
2018-04-11T23:10:15.697Z,41.90
2018-04-11T23:12:43.900Z,39.53
2018-04-11T23:15:12.088Z,41.50
2018-04-11T23:17:39.589Z,41.43
2018-04-11T23:20:07.015Z,41.53
2018-04-11T23:22:35.203Z,40.93
2018-04-11T23:25:03.380Z,39.97
2018-04-11T23:27:31.572Z,41.93
2018-04-11T23:29:59.785Z,40.97
2018-04-11T23:32:27.228Z,40.30
2018-04-11T23:34:56.248Z,42.75
2018-04-11T23:37:23.686Z,42.53
2018-04-11T23:39:51.120Z,41.33
2018-04-11T23:42:18.549Z,41.40
2018-04-11T23:44:46.724Z,42.40
2018-04-11T23:47:14.943Z,42.47
2018-04-11T23:49:42.385Z,45.33
2018-04-11T23:52:09.832Z,43.27
2018-04-11T23:54:37.317Z,43.83
2018-04-11T23:57:05.497Z,44.47
2018-04-11T23:59:33.699Z,43.20
